Time;durP1;ratioP1;P1;durP2;ratioP2;P2;SDS_P1;SDS_P2;PMS_P1;PMS_P2;Temp;Humidity;BMP_temperature;BMP_pressure;BME280_temperature;BME280_humidity;BME280_pressure;Samples;Min_cycle;Max_cycle;Signal;HPM_P1;HPM_P2
2021/04/27 00:01:40;;;;;;;24.13;11.27;;;6.50;99.90;;;;;;5052132;28;20389;-65
2021/04/27 00:04:06;;;;;;;18.85;10.55;;;6.50;99.90;;;;;;5053360;28;20024;-65
2021/04/27 00:06:31;;;;;;;16.15;10.27;;;6.50;99.90;;;;;;5053354;28;20021;-65
2021/04/27 00:08:57;;;;;;;17.58;10.45;;;6.50;99.90;;;;;;5052836;28;20029;-64
2021/04/27 00:11:23;;;;;;;17.15;9.80;;;6.40;99.90;;;;;;5053122;28;20060;-64
2021/04/27 00:13:48;;;;;;;17.30;10.50;;;6.40;99.90;;;;;;5052994;28;20039;-65
2021/04/27 00:16:14;;;;;;;17.50;10.40;;;6.30;99.90;;;;;;5051955;28;20394;-65
2021/04/27 00:18:40;;;;;;;17.80;10.52;;;6.30;99.90;;;;;;5051327;28;20086;-65
2021/04/27 00:21:05;;;;;;;17.25;10.45;;;6.20;99.90;;;;;;5052868;28;20031;-65
2021/04/27 00:23:31;;;;;;;19.80;10.73;;;6.20;99.90;;;;;;5052811;28;20033;-64
2021/04/27 00:25:56;;;;;;;16.92;10.27;;;6.20;99.90;;;;;;5051490;28;20481;-65
2021/04/27 00:28:23;;;;;;;18.20;10.70;;;6.20;99.90;;;;;;5052663;28;20477;-65
2021/04/27 00:30:50;;;;;;;17.38;10.52;;;6.10;99.90;;;;;;5052299;28;20025;-65
2021/04/27 00:33:16;;;;;;;18.75;10.27;;;6.10;99.90;;;;;;5077676;22;20518;-64
2021/04/27 00:35:42;;;;;;;16.85;10.45;;;6.10;99.90;;;;;;5051807;28;20031;-64
2021/04/27 00:38:07;;;;;;;20.02;10.57;;;6.00;99.90;;;;;;5051546;28;20071;-64
2021/04/27 00:40:33;;;;;;;20.05;11.18;;;6.00;99.90;;;;;;5051350;28;20036;-65
2021/04/27 00:43:02;;;;;;;18.90;11.45;;;6.00;99.90;;;;;;5051827;28;20044;-64
2021/04/27 00:45:29;;;;;;;17.15;10.98;;;5.90;99.90;;;;;;5051588;28;20559;-62
2021/04/27 00:47:56;;;;;;;17.92;11.23;;;6.00;99.90;;;;;;5051560;28;20102;-64
2021/04/27 00:50:28;;;;;;;18.02;10.57;;;6.00;99.90;;;;;;5051282;28;20021;-64
2021/04/27 00:52:55;;;;;;;18.08;10.70;;;5.90;99.90;;;;;;5051274;28;20021;-64
2021/04/27 00:55:22;;;;;;;17.58;10.10;;;5.90;99.90;;;;;;5051212;28;20086;-63
2021/04/27 00:57:48;;;;;;;17.05;10.95;;;5.90;99.90;;;;;;5052627;28;20025;-64
2021/04/27 01:00:17;;;;;;;16.48;10.13;;;5.80;99.90;;;;;;5051217;28;20036;-65
2021/04/27 01:02:44;;;;;;;17.02;10.05;;;5.80;99.90;;;;;;5052348;28;20078;-64
2021/04/27 01:05:17;;;;;;;17.30;10.30;;;5.80;99.90;;;;;;5052490;28;20100;-65
2021/04/27 01:08:19;;;;;;;17.88;11.15;;;5.80;99.90;;;;;;5052515;28;20112;-64
2021/04/27 01:10:44;;;;;;;16.80;10.93;;;5.80;99.90;;;;;;5014337;28;20037;-60
2021/04/27 01:13:38;;;;;;;17.05;10.85;;;5.80;99.90;;;;;;5052053;28;20021;-65
2021/04/27 01:16:06;;;;;;;16.40;10.52;;;5.70;99.90;;;;;;5051965;28;20281;-64
2021/04/27 01:18:32;;;;;;;17.80;10.57;;;5.70;99.90;;;;;;5053418;28;20017;-62
2021/04/27 01:21:00;;;;;;;19.05;11.68;;;5.70;99.90;;;;;;5052835;28;20560;-65
2021/04/27 01:23:41;;;;;;;17.08;11.20;;;5.70;99.90;;;;;;5051397;28;20420;-60
2021/04/27 01:26:38;;;;;;;17.42;10.73;;;5.60;99.90;;;;;;5053376;28;20051;-64
2021/04/27 01:29:07;;;;;;;17.85;10.90;;;5.60;99.90;;;;;;5052321;28;20057;-63
2021/04/27 01:31:33;;;;;;;16.67;10.50;;;5.60;99.90;;;;;;5052950;28;20021;-63
2021/04/27 01:34:01;;;;;;;18.08;10.75;;;5.60;99.90;;;;;;5050889;28;20092;-64
2021/04/27 01:36:27;;;;;;;16.35;11.00;;;5.60;99.90;;;;;;5053623;28;20021;-65
2021/04/27 01:38:53;;;;;;;22.08;10.50;;;5.60;99.90;;;;;;5056013;28;20516;-64
2021/04/27 01:41:19;;;;;;;17.15;10.43;;;5.50;99.90;;;;;;5054993;28;20025;-63
2021/04/27 01:43:46;;;;;;;17.45;10.70;;;5.50;99.90;;;;;;5055342;28;20571;-62
2021/04/27 01:46:12;;;;;;;16.80;10.50;;;5.40;99.90;;;;;;5054935;28;20036;-64
2021/04/27 01:48:38;;;;;;;17.25;10.40;;;5.40;99.90;;;;;;5055875;28;20029;-63
2021/04/27 01:51:08;;;;;;;16.92;10.48;;;5.40;99.90;;;;;;5056307;28;20653;-65
2021/04/27 01:53:35;;;;;;;20.75;11.35;;;5.40;99.90;;;;;;5056256;28;20025;-64
2021/04/27 01:56:01;;;;;;;16.48;10.52;;;5.40;99.90;;;;;;5054844;28;20025;-63
2021/04/27 01:58:27;;;;;;;16.27;10.85;;;5.40;99.90;;;;;;5056083;28;20558;-61
2021/04/27 02:00:52;;;;;;;16.05;10.50;;;5.30;99.90;;;;;;5055549;28;20056;-64
2021/04/27 02:03:18;;;;;;;17.33;11.13;;;5.40;99.90;;;;;;5054695;28;20029;-64
2021/04/27 02:05:44;;;;;;;18.25;10.73;;;5.30;99.90;;;;;;5055921;28;20076;-63
2021/04/27 02:08:09;;;;;;;15.90;10.35;;;5.40;99.90;;;;;;5055797;28;20021;-63
2021/04/27 02:10:36;;;;;;;17.42;10.75;;;5.30;99.90;;;;;;5055751;28;20028;-63
2021/04/27 02:13:13;;;;;;;17.83;11.38;;;5.30;99.90;;;;;;5055525;28;20446;-63
2021/04/27 02:15:40;;;;;;;16.58;10.65;;;5.20;99.90;;;;;;5054300;28;20485;-63
2021/04/27 02:18:16;;;;;;;17.20;10.57;;;5.20;99.90;;;;;;5054458;28;20401;-64
2021/04/27 02:20:43;;;;;;;17.05;10.60;;;5.20;99.90;;;;;;5055818;28;20021;-63
2021/04/27 02:23:10;;;;;;;19.05;11.68;;;5.10;99.90;;;;;;5054376;28;20025;-63
2021/04/27 02:25:37;;;;;;;17.67;11.52;;;5.00;99.90;;;;;;5055250;28;20072;-64
2021/04/27 02:28:03;;;;;;;18.10;11.93;;;4.90;99.90;;;;;;5053899;28;20031;-64
2021/04/27 02:30:30;;;;;;;16.10;10.20;;;4.90;99.90;;;;;;5055240;28;20528;-65
2021/04/27 02:32:55;;;;;;;18.73;10.85;;;5.00;99.90;;;;;;5053732;28;20025;-65
2021/04/27 02:35:22;;;;;;;23.50;11.20;;;5.00;99.90;;;;;;5055182;28;20096;-63
2021/04/27 02:37:50;;;;;;;19.35;11.23;;;5.00;99.90;;;;;;5054018;28;20021;-64
2021/04/27 02:40:24;;;;;;;16.13;10.20;;;4.90;99.90;;;;;;5055112;28;20084;-64
2021/04/27 02:42:52;;;;;;;18.42;12.18;;;5.00;99.90;;;;;;5053795;28;20448;-64
2021/04/27 02:45:19;;;;;;;17.35;10.40;;;5.00;99.90;;;;;;5055103;28;20032;-64
2021/04/27 02:47:45;;;;;;;17.15;10.68;;;4.90;99.90;;;;;;5053525;28;20132;-64
2021/04/27 02:50:13;;;;;;;15.82;9.98;;;4.90;99.90;;;;;;5053341;28;20108;-65
2021/04/27 02:52:40;;;;;;;16.08;10.10;;;5.00;99.90;;;;;;5053801;28;20021;-64
2021/04/27 02:55:06;;;;;;;17.15;11.30;;;4.90;99.90;;;;;;5054973;28;20029;-64
2021/04/27 02:57:32;;;;;;;16.77;10.32;;;4.90;99.90;;;;;;5055018;28;20021;-64
2021/04/27 02:59:57;;;;;;;16.23;10.30;;;4.80;99.90;;;;;;5054763;28;20389;-64
2021/04/27 03:02:23;;;;;;;17.50;10.80;;;4.80;99.90;;;;;;5053171;28;20025;-64
2021/04/27 03:04:49;;;;;;;16.50;10.00;;;4.70;99.90;;;;;;5053515;28;20017;-64
2021/04/27 03:07:14;;;;;;;17.33;11.00;;;4.70;99.90;;;;;;5054772;28;20025;-63
2021/04/27 03:09:40;;;;;;;18.80;10.60;;;4.70;99.90;;;;;;5054275;28;20037;-64
2021/04/27 03:12:06;;;;;;;16.92;11.57;;;4.60;99.90;;;;;;5054561;28;20032;-63
2021/04/27 03:14:31;;;;;;;16.15;10.23;;;4.60;99.90;;;;;;5054865;28;20021;-64
2021/04/27 03:16:57;;;;;;;15.57;10.05;;;4.70;99.90;;;;;;5055120;28;20029;-64
2021/04/27 03:19:22;;;;;;;17.48;10.82;;;4.60;99.90;;;;;;5053643;28;20052;-64
2021/04/27 03:21:48;;;;;;;16.52;10.57;;;4.60;99.90;;;;;;5054638;28;20063;-64
2021/04/27 03:24:15;;;;;;;16.42;10.13;;;4.60;99.90;;;;;;5053157;28;20280;-61
2021/04/27 03:26:41;;;;;;;16.65;10.77;;;4.60;99.90;;;;;;5054394;28;20025;-63
2021/04/27 03:29:06;;;;;;;15.43;10.10;;;4.60;99.90;;;;;;5053927;28;20353;-64
2021/04/27 03:31:32;;;;;;;17.42;11.15;;;4.50;99.90;;;;;;5052945;28;20033;-65
2021/04/27 03:33:58;;;;;;;17.20;10.50;;;4.50;99.90;;;;;;5054129;28;20021;-65
2021/04/27 03:36:25;;;;;;;19.83;13.32;;;4.50;99.90;;;;;;5054102;28;20070;-63
2021/04/27 03:38:50;;;;;;;21.73;11.15;;;4.50;99.90;;;;;;5052593;28;20112;-63
2021/04/27 03:41:16;;;;;;;16.55;9.88;;;4.40;99.90;;;;;;5054067;28;20052;-63
2021/04/27 03:43:42;;;;;;;16.73;9.88;;;4.40;99.90;;;;;;5054083;28;20067;-64
2021/04/27 03:46:07;;;;;;;19.75;11.05;;;4.30;99.90;;;;;;5052343;28;20116;-64
2021/04/27 03:48:33;;;;;;;17.08;10.35;;;4.30;99.90;;;;;;5053656;28;20021;-61
2021/04/27 03:50:59;;;;;;;16.35;10.27;;;4.30;99.90;;;;;;5052649;28;20546;-62
2021/04/27 03:53:25;;;;;;;16.17;10.07;;;4.30;99.90;;;;;;5053832;28;20024;-62
2021/04/27 03:55:50;;;;;;;19.23;11.50;;;4.30;99.90;;;;;;5053701;28;20028;-62
2021/04/27 03:58:16;;;;;;;19.30;10.38;;;4.30;99.90;;;;;;5052516;28;20025;-63
2021/04/27 04:00:42;;;;;;;17.60;11.07;;;4.30;99.90;;;;;;5053556;28;20029;-61
2021/04/27 04:03:07;;;;;;;16.27;10.68;;;4.30;99.90;;;;;;5053968;28;20031;-62
2021/04/27 04:05:33;;;;;;;18.45;11.18;;;4.30;99.90;;;;;;5052490;28;20025;-63
2021/04/27 04:07:58;;;;;;;18.88;10.27;;;4.20;99.90;;;;;;5053344;28;20025;-63
2021/04/27 04:10:24;;;;;;;17.40;10.68;;;4.20;99.90;;;;;;5053332;28;20048;-63
2021/04/27 04:12:50;;;;;;;17.55;10.57;;;4.30;99.90;;;;;;5052108;28;20024;-63
2021/04/27 04:15:19;;;;;;;16.55;10.60;;;4.30;99.90;;;;;;5051958;28;20056;-64
2021/04/27 04:17:45;;;;;;;17.63;10.63;;;4.30;99.90;;;;;;5052419;28;20021;-64
2021/04/27 04:20:15;;;;;;;17.25;10.90;;;4.20;99.90;;;;;;5053352;28;20056;-65
2021/04/27 04:22:41;;;;;;;20.88;11.00;;;4.20;99.90;;;;;;5052366;28;20070;-64
2021/04/27 04:25:08;;;;;;;18.00;10.25;;;4.20;99.90;;;;;;5053703;28;20025;-64
2021/04/27 04:27:34;;;;;;;16.75;10.57;;;4.30;99.90;;;;;;5053311;28;20143;-64
2021/04/27 04:30:03;;;;;;;18.10;10.57;;;4.30;99.90;;;;;;5052198;28;20404;-65
2021/04/27 04:32:29;;;;;;;19.42;11.68;;;4.30;99.90;;;;;;5053285;28;20031;-65
2021/04/27 04:34:54;;;;;;;17.10;10.27;;;4.30;99.90;;;;;;5052353;28;20107;-61
2021/04/27 04:37:20;;;;;;;16.77;9.90;;;4.30;99.90;;;;;;5053016;28;20492;-64
2021/04/27 04:39:45;;;;;;;15.20;10.25;;;4.30;99.90;;;;;;5052442;28;20086;-64
2021/04/27 04:42:11;;;;;;;17.90;10.38;;;4.30;99.90;;;;;;5053661;28;20029;-62
2021/04/27 04:44:37;;;;;;;18.80;10.55;;;4.30;99.90;;;;;;5052650;28;20506;-64
2021/04/27 04:47:02;;;;;;;14.93;10.23;;;4.30;99.90;;;;;;5053366;28;20037;-63
2021/04/27 04:49:28;;;;;;;17.35;10.90;;;4.40;99.90;;;;;;5051447;28;20131;-65
2021/04/27 04:51:55;;;;;;;17.60;11.45;;;4.30;99.90;;;;;;5051931;28;20234;-63
2021/04/27 04:54:21;;;;;;;17.10;10.60;;;4.40;99.90;;;;;;5051800;28;20056;-64
2021/04/27 04:56:48;;;;;;;18.00;10.27;;;4.40;99.90;;;;;;5053010;28;20032;-64
2021/04/27 04:59:14;;;;;;;16.33;10.27;;;4.40;99.90;;;;;;5051572;28;20074;-63
2021/04/27 05:01:40;;;;;;;16.45;11.00;;;4.50;99.90;;;;;;5051594;28;20115;-64
2021/04/27 05:04:06;;;;;;;16.70;10.30;;;4.60;99.90;;;;;;5051519;28;20615;-65
2021/04/27 05:06:36;;;;;;;18.13;10.07;;;4.50;99.90;;;;;;5052720;28;20146;-59
2021/04/27 05:09:04;;;;;;;18.40;10.30;;;4.60;99.90;;;;;;5052248;28;20078;-65
2021/04/27 05:11:29;;;;;;;18.35;10.73;;;4.60;99.90;;;;;;5051160;28;20042;-61
2021/04/27 05:13:55;;;;;;;17.50;10.20;;;4.70;99.90;;;;;;5052602;28;20376;-64
2021/04/27 05:16:21;;;;;;;19.08;11.45;;;4.70;99.90;;;;;;5051305;28;20075;-66
2021/04/27 05:18:47;;;;;;;19.42;10.45;;;4.80;99.90;;;;;;5052296;28;20385;-64
2021/04/27 05:21:13;;;;;;;17.52;10.63;;;4.90;99.90;;;;;;5051133;28;20025;-60
2021/04/27 05:23:39;;;;;;;15.77;9.98;;;4.90;99.90;;;;;;5051355;28;20025;-63
2021/04/27 05:26:05;;;;;;;16.17;10.35;;;5.00;99.90;;;;;;5051087;28;20033;-64
2021/04/27 05:28:31;;;;;;;16.92;10.52;;;5.10;99.90;;;;;;5050710;28;20036;-63
2021/04/27 05:30:57;;;;;;;15.82;10.48;;;5.10;99.90;;;;;;5051018;28;20435;-61
2021/04/27 05:33:22;;;;;;;17.60;10.45;;;5.20;99.90;;;;;;5050825;28;20127;-62
2021/04/27 05:35:48;;;;;;;16.77;10.77;;;5.30;99.90;;;;;;5052685;28;20103;-63
2021/04/27 05:38:14;;;;;;;16.65;9.95;;;5.40;99.90;;;;;;5050626;28;20025;-63
2021/04/27 05:40:39;;;;;;;17.50;10.18;;;5.50;99.90;;;;;;5051785;28;20028;-62
2021/04/27 05:43:05;;;;;;;15.80;10.52;;;5.60;99.90;;;;;;5051822;28;20315;-64
2021/04/27 05:45:31;;;;;;;16.67;10.55;;;5.70;99.90;;;;;;5051940;28;20067;-64
2021/04/27 05:47:56;;;;;;;18.23;10.70;;;5.80;99.90;;;;;;5051834;28;20032;-62
2021/04/27 05:50:22;;;;;;;17.00;11.13;;;5.90;99.90;;;;;;5051644;28;20485;-64
2021/04/27 05:52:48;;;;;;;17.48;10.93;;;6.00;99.90;;;;;;5050662;28;20021;-63
2021/04/27 05:55:16;;;;;;;16.75;10.38;;;6.10;99.90;;;;;;5051199;28;20067;-64
2021/04/27 05:57:42;;;;;;;16.88;10.25;;;6.10;99.90;;;;;;5045367;28;20021;-65
2021/04/27 06:00:08;;;;;;;18.70;10.70;;;6.20;99.90;;;;;;5040609;28;20090;-64
2021/04/27 06:02:34;;;;;;;18.13;11.13;;;6.30;99.90;;;;;;5051602;28;20428;-64
2021/04/27 06:05:02;;;;;;;18.92;10.70;;;6.30;99.90;;;;;;5052813;28;20021;-64
2021/04/27 06:07:28;;;;;;;22.35;11.00;;;6.40;99.90;;;;;;5051607;28;20055;-61
2021/04/27 06:09:53;;;;;;;19.35;10.65;;;6.50;99.90;;;;;;5052082;28;20068;-65
2021/04/27 06:12:19;;;;;;;16.65;10.75;;;6.60;99.90;;;;;;5051444;28;20021;-64
2021/04/27 06:14:44;;;;;;;21.02;11.00;;;6.60;99.30;;;;;;5052676;28;20480;-64
2021/04/27 06:17:10;;;;;;;19.13;10.77;;;6.70;99.80;;;;;;5052929;28;20096;-65
2021/04/27 06:19:36;;;;;;;17.83;10.52;;;6.70;99.80;;;;;;5052155;28;20036;-62
2021/04/27 06:22:01;;;;;;;17.52;10.50;;;6.80;99.90;;;;;;5053396;28;20305;-65
2021/04/27 06:24:27;;;;;;;17.33;10.45;;;6.90;99.80;;;;;;5053900;28;20028;-64
2021/04/27 06:26:52;;;;;;;17.55;10.32;;;7.00;99.70;;;;;;5055181;28;20025;-64
2021/04/27 06:29:18;;;;;;;18.10;10.98;;;7.10;99.00;;;;;;5054819;28;20037;-65
2021/04/27 06:31:44;;;;;;;15.90;10.40;;;7.20;98.50;;;;;;5078495;23;20029;-65
2021/04/27 06:34:09;;;;;;;15.60;10.50;;;7.30;97.50;;;;;;5033068;28;20049;-64
2021/04/27 06:36:35;;;;;;;19.80;10.95;;;7.40;97.00;;;;;;5053243;28;20029;-64
2021/04/27 06:39:04;;;;;;;19.80;11.35;;;7.50;96.80;;;;;;5034715;28;20079;-66
2021/04/27 06:41:32;;;;;;;22.55;11.93;;;7.50;96.40;;;;;;5052925;28;20116;-65
2021/04/27 06:43:58;;;;;;;23.00;12.43;;;7.60;96.30;;;;;;5043301;28;20025;-66
2021/04/27 06:46:24;;;;;;;19.45;11.25;;;7.70;95.60;;;;;;5053204;28;20401;-67
2021/04/27 06:48:50;;;;;;;18.63;10.75;;;7.90;95.00;;;;;;5053002;28;20029;-67
2021/04/27 06:51:17;;;;;;;20.38;10.90;;;7.90;95.00;;;;;;5053461;28;20028;-67
2021/04/27 06:53:44;;;;;;;18.90;10.95;;;8.00;93.10;;;;;;5052971;28;20033;-67
2021/04/27 06:56:10;;;;;;;21.88;11.85;;;8.10;92.90;;;;;;5035296;28;20086;-67
2021/04/27 06:58:36;;;;;;;15.82;10.27;;;8.10;92.40;;;;;;5035142;28;20028;-63
2021/04/27 07:01:01;;;;;;;18.55;10.75;;;8.20;91.90;;;;;;5052937;28;20021;-63
2021/04/27 07:03:27;;;;;;;19.00;11.38;;;8.30;92.30;;;;;;5068114;28;20028;-62
2021/04/27 07:05:52;;;;;;;18.30;11.38;;;8.40;91.30;;;;;;5034990;28;20056;-61
2021/04/27 07:08:18;;;;;;;21.00;11.75;;;8.40;91.50;;;;;;5034877;28;20024;-62
2021/04/27 07:10:44;;;;;;;19.48;11.25;;;8.50;91.00;;;;;;5034879;28;20028;-63
2021/04/27 07:13:10;;;;;;;20.55;11.50;;;8.60;91.50;;;;;;5053030;28;20028;-63
2021/04/27 07:15:35;;;;;;;16.48;10.70;;;8.70;91.20;;;;;;5056662;28;20446;-63
2021/04/27 07:18:01;;;;;;;19.08;10.90;;;8.80;90.70;;;;;;5056277;28;20028;-64
2021/04/27 07:20:26;;;;;;;25.85;11.75;;;8.90;89.70;;;;;;5070160;28;20033;-59
2021/04/27 07:22:52;;;;;;;18.27;10.55;;;8.90;89.10;;;;;;5052935;28;20028;-55
2021/04/27 07:25:18;;;;;;;18.45;10.68;;;9.00;86.60;;;;;;5052391;28;20060;-57
2021/04/27 07:27:45;;;;;;;20.20;10.95;;;9.00;87.20;;;;;;5052139;28;20111;-57
2021/04/27 07:30:12;;;;;;;22.42;12.13;;;9.00;86.70;;;;;;5052289;28;20024;-60
2021/04/27 07:32:38;;;;;;;16.73;10.65;;;9.10;87.70;;;;;;5071550;28;20052;-60
2021/04/27 07:35:06;;;;;;;16.02;10.57;;;9.30;87.00;;;;;;5072020;28;20020;-56
2021/04/27 07:37:33;;;;;;;17.35;10.55;;;9.40;85.80;;;;;;5054204;28;20444;-57
2021/04/27 07:39:59;;;;;;;17.30;10.48;;;9.50;85.20;;;;;;5071814;28;20032;-57
2021/04/27 07:42:24;;;;;;;23.27;11.15;;;9.50;81.90;;;;;;5071983;28;20364;-56
2021/04/27 07:44:50;;;;;;;19.27;11.55;;;9.60;82.80;;;;;;5071920;28;20025;-58
2021/04/27 07:47:16;;;;;;;17.45;10.63;;;9.60;81.70;;;;;;5072023;28;20040;-58
2021/04/27 07:49:41;;;;;;;18.02;11.27;;;9.70;78.70;;;;;;5071574;28;20028;-58
2021/04/27 07:52:07;;;;;;;16.17;10.93;;;9.70;77.70;;;;;;5053376;28;20051;-60
2021/04/27 07:54:33;;;;;;;15.40;10.65;;;9.70;75.70;;;;;;5071714;28;20517;-58
2021/04/27 07:56:58;;;;;;;17.13;10.85;;;9.80;76.60;;;;;;5053904;28;20387;-57
2021/04/27 07:59:24;;;;;;;16.85;10.70;;;9.80;75.50;;;;;;5053483;28;20389;-58
2021/04/27 08:01:50;;;;;;;17.25;11.02;;;9.90;77.60;;;;;;5034338;28;20120;-61
2021/04/27 08:04:16;;;;;;;21.20;11.50;;;10.00;73.60;;;;;;5033548;28;20128;-57
2021/04/27 08:06:42;;;;;;;16.98;11.07;;;10.10;72.70;;;;;;5052101;28;20036;-52
2021/04/27 08:09:08;;;;;;;16.15;11.43;;;10.10;70.70;;;;;;5051684;28;20112;-57
2021/04/27 08:11:34;;;;;;;17.10;11.90;;;10.10;70.40;;;;;;5043654;28;20089;-60
2021/04/27 08:14:00;;;;;;;19.42;11.55;;;10.20;71.30;;;;;;5064859;28;20554;-60
2021/04/27 08:16:26;;;;;;;18.23;11.55;;;10.20;70.20;;;;;;5051258;28;20048;-60
2021/04/27 08:18:52;;;;;;;17.30;11.52;;;10.30;70.30;;;;;;5051424;28;20182;-61
2021/04/27 08:21:17;;;;;;;18.10;11.57;;;10.40;69.00;;;;;;5050938;28;20033;-58
2021/04/27 08:23:43;;;;;;;16.27;10.73;;;10.30;66.70;;;;;;5051490;28;20021;-58
2021/04/27 08:26:14;;;;;;;18.10;11.88;;;10.40;68.60;;;;;;5051799;28;20396;-59
2021/04/27 08:28:40;;;;;;;17.23;11.85;;;10.40;68.90;;;;;;5049002;28;20065;-60
2021/04/27 08:31:07;;;;;;;16.17;10.80;;;10.30;67.70;;;;;;5055590;28;20044;-57
2021/04/27 08:33:34;;;;;;;16.88;10.40;;;10.40;68.70;;;;;;5071105;28;20025;-62
2021/04/27 08:35:59;;;;;;;17.92;10.75;;;10.50;69.00;;;;;;5070973;28;20029;-61
2021/04/27 08:38:28;;;;;;;19.67;11.25;;;10.50;68.00;;;;;;5070864;28;20035;-60
2021/04/27 08:40:54;;;;;;;;;;;10.70;66.40;;;;;;5071162;28;20503;-59
2021/04/27 08:43:21;;;;;;;18.30;11.07;;;10.70;66.20;;;;;;5071099;28;19919;-60
2021/04/27 08:45:46;;;;;;;16.52;10.93;;;10.80;68.50;;;;;;5052552;28;20028;-62
2021/04/27 08:48:14;;;;;;;18.58;11.00;;;10.90;66.50;;;;;;5070926;28;20482;-58
2021/04/27 08:50:42;;;;;;;22.35;11.35;;;11.00;67.20;;;;;;5070787;28;20020;-61
2021/04/27 08:53:09;;;;;;;18.45;11.00;;;11.10;65.10;;;;;;5071079;28;20160;-61
2021/04/27 08:55:35;;;;;;;16.05;11.07;;;11.00;64.50;;;;;;5052880;28;20017;-61
2021/04/27 08:58:08;;;;;;;20.38;10.50;;;11.10;63.60;;;;;;5064421;28;20497;-58
2021/04/27 09:00:34;;;;;;;19.58;11.88;;;11.00;62.80;;;;;;5033348;28;20400;-53
2021/04/27 09:03:05;;;;;;;17.38;10.85;;;;;;;;;;5050334;28;20384;-60
2021/04/27 09:05:35;;;;;;;17.33;11.30;;;11.00;63.00;;;;;;5050873;28;20029;-59
2021/04/27 09:08:01;;;;;;;18.27;11.05;;;11.20;61.90;;;;;;5050462;28;20388;-57
2021/04/27 09:10:30;;;;;;;19.60;11.75;;;11.40;63.20;;;;;;5050241;28;20385;-62
2021/04/27 09:13:03;;;;;;;18.77;11.50;;;11.50;62.50;;;;;;5033036;28;20032;-60
2021/04/27 09:15:35;;;;;;;18.10;11.07;;;;;;;;;;5051148;28;20509;-61
2021/04/27 09:18:21;;;;;;;16.48;11.40;;;11.50;63.10;;;;;;5050700;28;20029;-61
2021/04/27 09:20:52;;;;;;;17.52;10.90;;;11.80;61.70;;;;;;5033080;28;20069;-61
2021/04/27 09:23:18;;;;;;;17.35;11.45;;;11.80;61.40;;;;;;5050545;28;20029;-60
2021/04/27 09:26:17;;;;;;;19.17;10.90;;;11.80;60.50;;;;;;5032699;28;20029;-57
2021/04/27 09:28:47;;;;;;;18.50;10.68;;;11.70;61.50;;;;;;5050338;28;20044;-60
2021/04/27 09:31:23;;;;;;;17.88;10.68;;;11.70;61.70;;;;;;5051635;28;20031;-62
2021/04/27 09:33:50;;;;;;;16.50;10.43;;;11.90;60.50;;;;;;5070592;28;20032;-60
2021/04/27 09:36:27;;;;;;;17.25;11.80;;;12.00;61.60;;;;;;5071110;28;20024;-62
2021/04/27 09:38:54;;;;;;;16.33;10.52;;;12.10;60.20;;;;;;5070436;28;20048;-59
2021/04/27 09:41:25;;;;;;;16.45;10.80;;;11.90;60.70;;;;;;5070494;28;20020;-59
2021/04/27 09:43:52;;;;;;;15.93;10.48;;;11.90;59.60;;;;;;5070634;28;20016;-58
2021/04/27 09:46:19;;;;;;;16.83;9.95;;;11.90;60.60;;;;;;5070615;28;20036;-62
2021/04/27 09:48:54;;;;;;;15.95;10.57;;;11.90;59.10;;;;;;5070308;28;20069;-60
2021/04/27 09:51:47;;;;;;;15.45;10.25;;;11.80;60.40;;;;;;5070343;28;20017;-55
2021/04/27 09:54:13;;;;;;;16.45;10.52;;;11.90;60.20;;;;;;5049016;28;20416;-59
2021/04/27 09:56:47;;;;;;;16.98;10.90;;;11.90;59.70;;;;;;5071655;28;20027;-61
2021/04/27 09:59:23;;;;;;;18.25;10.73;;;11.90;59.90;;;;;;5058245;28;20017;-62
2021/04/27 10:01:50;;;;;;;18.40;10.45;;;11.90;59.70;;;;;;5054178;28;20047;-60
2021/04/27 10:04:16;;;;;;;16.30;10.23;;;11.90;60.10;;;;;;5054184;28;20021;-61
2021/04/27 10:06:46;;;;;;;16.35;10.43;;;;;;;;;;5054040;28;20094;-62
2021/04/27 10:09:12;;;;;;;16.60;10.90;;;;;;;;;;5053682;28;20124;-59
2021/04/27 10:11:39;;;;;;;16.88;10.45;;;;;;;;;;5053766;28;20025;-61
2021/04/27 10:14:06;;;;;;;15.95;11.00;;;12.10;60.80;;;;;;5053940;28;20485;-60
2021/04/27 10:16:36;;;;;;;18.15;11.25;;;12.60;58.40;;;;;;5035450;28;20080;-59
2021/04/27 10:19:04;;;;;;;19.92;10.75;;;12.60;57.80;;;;;;5053054;28;20048;-61
2021/04/27 10:21:32;;;;;;;17.15;10.82;;;12.40;57.20;;;;;;5035773;28;20029;-60
2021/04/27 10:24:01;;;;;;;15.10;10.60;;;12.30;58.10;;;;;;5052580;28;20035;-61
2021/04/27 10:26:28;;;;;;;15.20;10.20;;;12.50;58.60;;;;;;5061520;28;20152;-60
2021/04/27 10:29:01;;;;;;;18.80;10.65;;;12.60;58.00;;;;;;5045250;28;20057;-62
2021/04/27 10:31:29;;;;;;;15.48;10.18;;;12.50;57.30;;;;;;5060677;28;20048;-59
2021/04/27 10:34:07;;;;;;;15.45;10.32;;;12.70;57.50;;;;;;5043987;28;20024;-60
2021/04/27 10:36:39;;;;;;;16.45;10.35;;;12.60;56.30;;;;;;5049863;28;20531;-61
2021/04/27 10:39:08;;;;;;;19.80;10.50;;;12.40;55.90;;;;;;5070289;28;20036;-59
2021/04/27 10:41:44;;;;;;;16.10;9.98;;;12.50;57.00;;;;;;5060141;28;20415;-61
2021/04/27 10:44:11;;;;;;;18.23;10.15;;;12.50;55.50;;;;;;5061441;28;20025;-62
2021/04/27 10:46:36;;;;;;;17.20;9.98;;;12.60;57.20;;;;;;5062795;28;20033;-61
2021/04/27 10:49:23;;;;;;;15.75;10.68;;;12.80;57.70;;;;;;5044873;28;20028;-62
2021/04/27 10:51:51;;;;;;;15.40;10.07;;;12.90;55.80;;;;;;5063220;28;20099;-60
2021/04/27 10:54:18;;;;;;;16.50;10.07;;;12.70;54.80;;;;;;5047217;28;20020;-59
2021/04/27 10:56:45;;;;;;;15.50;10.38;;;12.60;56.20;;;;;;5068389;28;20017;-61
2021/04/27 10:59:13;;;;;;;16.00;10.15;;;12.80;56.60;;;;;;5062977;28;20016;-61
2021/04/27 11:01:41;;;;;;;16.02;10.32;;;;;;;;;;5041013;28;20025;-59
2021/04/27 11:04:08;;;;;;;15.70;10.48;;;;;;;;;;5061975;28;20049;-60
2021/04/27 11:06:34;;;;;;;18.60;10.65;;;13.00;57.20;;;;;;5063140;28;20028;-59
2021/04/27 11:09:11;;;;;;;15.18;10.77;;;;;;;;;;5060836;28;20024;-60
2021/04/27 11:11:37;;;;;;;15.80;10.95;;;;;;;;;;5061376;28;20024;-59
2021/04/27 11:14:17;;;;;;;15.95;10.75;;;;;;;;;;5067361;28;20033;-59
2021/04/27 11:16:46;;;;;;;18.83;10.77;;;;;;;;;;5063133;28;20111;-61
2021/04/27 11:19:21;;;;;;;15.50;10.80;;;13.90;55.80;;;;;;5062493;28;20088;-61
2021/04/27 11:21:49;;;;;;;16.02;10.93;;;19.40;49.10;;;;;;5058423;28;20017;-61
2021/04/27 11:24:29;;;;;;;18.67;11.20;;;20.10;48.30;;;;;;5060910;28;20119;-57
2021/04/27 11:26:56;;;;;;;17.17;10.88;;;;;;;;;;5062707;28;20099;-55
2021/04/27 11:29:23;;;;;;;17.15;10.77;;;;;;;;;;4682732;28;9999805;-62
2021/04/27 11:32:09;;;;;;;17.55;11.07;;;;;;;;;;5012823;28;20060;-61
2021/04/27 11:34:49;;;;;;;17.83;11.05;;;;;;;;;;5029535;28;20112;-60
2021/04/27 11:37:26;;;;;;;16.80;11.20;;;;;;;;;;5045427;28;20384;-60
2021/04/27 11:39:52;;;;;;;21.83;11.90;;;;;;;;;;5048708;28;20634;-61
2021/04/27 11:42:22;;;;;;;18.83;12.32;;;;;;;;;;5030989;28;20025;-60
2021/04/27 11:44:54;;;;;;;17.35;12.07;;;;;;;;;;5048358;28;20055;-60
2021/04/27 11:47:20;;;;;;;18.60;11.45;;;;;;;;;;5049088;28;20025;-61
2021/04/27 11:49:49;;;;;;;16.70;11.60;;;;;;;;;;5048488;28;20125;-60
2021/04/27 11:52:16;;;;;;;16.80;11.65;;;;;;;;;;5046608;28;20389;-62
2021/04/27 11:54:42;;;;;;;15.60;11.60;;;;;;;;;;5049063;28;20076;-59
2021/04/27 11:57:15;;;;;;;18.63;12.43;;;;;;;;;;5048979;28;20033;-61
2021/04/27 11:59:42;;;;;;;16.17;11.90;;;;;;;;;;5029006;28;20253;-62
2021/04/27 12:02:08;;;;;;;16.90;11.68;;;;;;;;;;5035965;28;20040;-57
2021/04/27 12:04:34;;;;;;;16.77;11.95;;;;;;;;;;5049079;28;20021;-61
2021/04/27 12:07:01;;;;;;;18.08;11.90;;;;;;;;;;5051436;28;20369;-61
2021/04/27 12:09:27;;;;;;;15.98;11.88;;;;;;;;;;5063965;28;20028;-61
2021/04/27 12:11:53;;;;;;;18.00;11.40;;;;;;;;;;5063930;28;20453;-62
2021/04/27 12:14:19;;;;;;;17.73;11.70;;;;;;;;;;5059233;28;20029;-62
2021/04/27 12:16:46;;;;;;;16.48;11.95;;;;;;;;;;5029427;28;20394;-59
2021/04/27 12:19:19;;;;;;;20.65;12.65;;;;;;;;;;5049483;28;20033;-60
2021/04/27 12:21:48;;;;;;;19.15;12.15;;;;;;;;;;5055789;28;20052;-62
2021/04/27 12:24:24;;;;;;;17.30;11.98;;;;;;;;;;5057306;28;20445;-61
2021/04/27 12:27:09;;;;;;;17.20;12.32;;;;;;;;;;5057469;28;20032;-62
2021/04/27 12:29:37;;;;;;;16.50;11.63;;;;;;;;;;5069451;28;20024;-61
2021/04/27 12:34:33;;;;;;;18.05;12.55;;;20.60;45.60;;;;;;5069327;22;20384;-62
2021/04/27 12:37:00;;;;;;;19.05;12.18;;;;;;;;;;5052037;28;20017;-61
2021/04/27 12:39:30;;;;;;;19.08;12.20;;;;;;;;;;5059559;28;20107;-62
2021/04/27 12:42:17;;;;;;;18.58;12.27;;;;;;;;;;5057721;28;20028;-61
2021/04/27 12:44:43;;;;;;;16.35;12.30;;;;;;;;;;5039283;28;20135;-61
2021/04/27 12:47:15;;;;;;;15.82;12.98;;;;;;;;;;5041244;28;20107;-62
2021/04/27 12:49:41;;;;;;;17.08;12.48;;;;;;;;;;5037138;28;20044;-62
2021/04/27 12:52:08;;;;;;;17.02;12.68;;;;;;;;;;5035884;28;20017;-61
2021/04/27 12:54:35;;;;;;;17.15;13.13;;;26.20;37.30;;;;;;5031326;28;20025;-62